Time;durP1;ratioP1;P1;durP2;ratioP2;P2;SDS_P1;SDS_P2;PMS_P1;PMS_P2;Temp;Humidity;BMP_temperature;BMP_pressure;BME280_temperature;BME280_humidity;BME280_pressure;Samples;Min_cycle;Max_cycle;Signal;HPM_P1;HPM_P2
2022/10/16 00:02:02;;;;;;;5.32;0.70;;;12.60;99.90;;;;;;4933789;29;20031;-86
2022/10/16 00:04:27;;;;;;;4.25;1.13;;;12.40;99.90;;;;;;4939492;29;20031;-86
2022/10/16 00:06:53;;;;;;;7.93;1.73;;;12.40;99.90;;;;;;4938034;29;20094;-85
2022/10/16 00:09:19;;;;;;;4.70;0.95;;;12.50;99.90;;;;;;4936167;29;20075;-86
2022/10/16 00:11:44;;;;;;;5.38;1.00;;;12.70;99.90;;;;;;4905843;29;20044;-85
2022/10/16 00:14:14;;;;;;;5.07;0.70;;;12.50;99.90;;;;;;4918922;29;20614;-86
2022/10/16 00:16:39;;;;;;;6.00;1.15;;;12.50;99.90;;;;;;4915830;29;20048;-85
2022/10/16 00:19:05;;;;;;;8.00;1.40;;;12.50;99.90;;;;;;4953007;28;20039;-85
2022/10/16 00:21:31;;;;;;;5.47;1.00;;;12.50;99.90;;;;;;4930220;29;20175;-86
2022/10/16 00:24:08;;;;;;;4.25;0.60;;;12.50;99.90;;;;;;4942545;29;20122;-85
2022/10/16 00:26:35;;;;;;;5.93;1.15;;;12.50;99.90;;;;;;4947958;28;20493;-85
2022/10/16 00:29:00;;;;;;;4.35;1.05;;;12.50;99.90;;;;;;4930005;29;20133;-86
2022/10/16 00:31:26;;;;;;;10.73;1.45;;;12.50;99.90;;;;;;4921516;29;20564;-86
2022/10/16 00:33:53;;;;;;;8.32;1.60;;;12.50;99.90;;;;;;4940055;29;20046;-86
2022/10/16 00:36:21;;;;;;;4.40;1.10;;;12.60;99.90;;;;;;4922596;29;20041;-86
2022/10/16 00:38:49;;;;;;;3.42;1.08;;;13.00;99.90;;;;;;4906266;29;20035;-86
2022/10/16 00:41:17;;;;;;;7.40;1.00;;;12.50;99.90;;;;;;4921058;29;20046;-86
2022/10/16 00:43:51;;;;;;;5.07;1.20;;;12.50;99.90;;;;;;4942519;29;20484;-85
2022/10/16 00:46:25;;;;;;;7.88;1.42;;;12.70;99.90;;;;;;4929163;29;20386;-87
2022/10/16 00:49:09;;;;;;;4.72;1.00;;;12.50;99.90;;;;;;4954334;28;20468;-86
2022/10/16 00:51:47;;;;;;;4.57;0.80;;;12.50;99.90;;;;;;4915897;29;20050;-85
2022/10/16 00:54:28;;;;;;;5.55;0.80;;;12.50;99.90;;;;;;4926112;29;20080;-86
2022/10/16 00:56:56;;;;;;;4.35;1.35;;;12.50;99.90;;;;;;4929447;29;20480;-86
2022/10/16 00:59:34;;;;;;;4.47;1.02;;;12.70;99.90;;;;;;4930751;29;20539;-85
2022/10/16 01:02:00;;;;;;;4.88;1.00;;;12.50;99.90;;;;;;4948266;28;20544;-86
2022/10/16 01:04:28;;;;;;;9.00;1.05;;;12.90;99.90;;;;;;4933634;29;20170;-86
2022/10/16 01:07:04;;;;;;;4.30;1.00;;;12.60;99.90;;;;;;4900768;29;20039;-86
2022/10/16 01:09:46;;;;;;;7.85;1.00;;;12.60;99.90;;;;;;4956897;28;20082;-86
2022/10/16 01:12:35;;;;;;;7.93;0.85;;;12.60;99.90;;;;;;4957951;28;20531;-86
2022/10/16 01:15:08;;;;;;;6.47;1.40;;;12.50;99.90;;;;;;4902400;29;20050;-86
2022/10/16 01:18:04;;;;;;;6.00;1.00;;;13.10;99.90;;;;;;4902411;29;20169;-86
2022/10/16 01:20:53;;;;;;;3.70;0.70;;;12.60;99.90;;;;;;4896256;29;20052;-85
2022/10/16 01:23:43;;;;;;;2.67;0.88;;;12.60;99.90;;;;;;4917315;29;20154;-86
2022/10/16 01:26:30;;;;;;;6.53;0.90;;;12.60;99.90;;;;;;4931412;29;20039;-85
2022/10/16 01:29:20;;;;;;;5.47;0.80;;;12.60;99.90;;;;;;4932829;29;20043;-86
2022/10/16 01:31:51;;;;;;;6.28;1.35;;;12.60;99.90;;;;;;4904957;29;20048;-85
2022/10/16 01:34:25;;;;;;;6.47;1.45;;;13.10;99.90;;;;;;4947488;29;20048;-85
2022/10/16 01:37:04;;;;;;;4.85;0.95;;;12.70;99.90;;;;;;4914894;29;20051;-85
2022/10/16 01:39:34;;;;;;;4.30;1.23;;;12.70;99.90;;;;;;4936280;29;20040;-85
2022/10/16 01:42:22;;;;;;;4.38;0.85;;;13.60;99.90;;;;;;4929364;29;20107;-85
2022/10/16 01:44:50;;;;;;;6.57;0.90;;;12.80;99.90;;;;;;4950653;28;20046;-85
2022/10/16 01:47:18;;;;;;;6.07;1.10;;;12.80;99.90;;;;;;4906069;29;20043;-86
2022/10/16 01:49:45;;;;;;;6.07;0.65;;;12.70;99.90;;;;;;4916406;29;20035;-86
2022/10/16 01:52:15;;;;;;;7.28;1.02;;;12.80;99.90;;;;;;4921547;29;20468;-86
2022/10/16 01:54:44;;;;;;;3.60;0.90;;;12.90;99.90;;;;;;4919063;29;20058;-86
2022/10/16 01:57:12;;;;;;;3.42;0.80;;;12.80;99.90;;;;;;4931704;29;20043;-86
2022/10/16 01:59:44;;;;;;;3.30;0.70;;;12.80;99.90;;;;;;4930817;29;20051;-86
2022/10/16 02:02:11;;;;;;;4.95;0.88;;;13.50;99.90;;;;;;4916972;29;20404;-85
2022/10/16 02:04:42;;;;;;;5.40;0.85;;;12.70;99.90;;;;;;4946382;29;20040;-86
2022/10/16 02:07:08;;;;;;;1.88;0.63;;;12.80;99.90;;;;;;4925646;29;20122;-87
2022/10/16 02:09:35;;;;;;;3.92;0.70;;;12.70;99.90;;;;;;4940192;29;20047;-86
2022/10/16 02:12:07;;;;;;;3.70;1.00;;;13.00;99.90;;;;;;4925101;29;20050;-87
2022/10/16 02:14:39;;;;;;;5.57;0.70;;;12.80;99.90;;;;;;4920518;29;20035;-86
2022/10/16 02:17:16;;;;;;;3.50;0.68;;;12.80;99.90;;;;;;4934656;29;20508;-87
2022/10/16 02:19:43;;;;;;;3.47;0.77;;;12.80;99.90;;;;;;4910420;29;20044;-87
2022/10/16 02:22:16;;;;;;;7.88;1.23;;;12.80;99.90;;;;;;4917764;29;20031;-87
2022/10/16 02:25:01;;;;;;;2.17;0.60;;;12.80;99.90;;;;;;4918018;29;20119;-86
2022/10/16 02:27:55;;;;;;;3.77;0.77;;;13.00;99.90;;;;;;4952566;28;20039;-86
2022/10/16 02:30:34;;;;;;;5.47;0.90;;;12.80;99.90;;;;;;4952310;28;20044;-86
2022/10/16 02:33:02;;;;;;;2.03;0.65;;;12.80;99.90;;;;;;4902741;29;20062;-86
2022/10/16 02:35:29;;;;;;;4.10;1.05;;;13.40;99.90;;;;;;4915277;29;20397;-86
2022/10/16 02:37:56;;;;;;;2.72;0.85;;;12.80;99.90;;;;;;4934115;29;20489;-87
2022/10/16 02:40:21;;;;;;;4.32;0.70;;;12.80;99.90;;;;;;4933296;29;20040;-86
2022/10/16 02:42:51;;;;;;;4.10;0.90;;;13.50;99.90;;;;;;4930719;29;20038;-86
2022/10/16 02:45:17;;;;;;;10.60;2.17;;;12.90;99.90;;;;;;4924917;29;20382;-87
2022/10/16 02:47:42;;;;;;;3.70;1.02;;;12.80;99.90;;;;;;4909485;29;20046;-87
2022/10/16 02:50:08;;;;;;;4.93;0.90;;;13.00;99.90;;;;;;4901097;29;20043;-86
2022/10/16 02:52:34;;;;;;;5.95;1.17;;;12.90;99.90;;;;;;4938568;29;20043;-86
2022/10/16 02:54:59;;;;;;;3.83;1.00;;;13.00;99.90;;;;;;4921309;29;20086;-86
2022/10/16 02:57:25;;;;;;;4.60;0.95;;;12.90;99.90;;;;;;4902448;29;20044;-86
2022/10/16 02:59:51;;;;;;;3.35;0.77;;;12.90;99.90;;;;;;4898032;29;20465;-86
2022/10/16 03:02:16;;;;;;;3.13;1.30;;;12.90;99.90;;;;;;4916408;29;20083;-86
2022/10/16 03:04:42;;;;;;;7.65;1.33;;;12.90;99.90;;;;;;4932576;29;20036;-86
2022/10/16 03:07:08;;;;;;;3.47;0.80;;;12.80;99.90;;;;;;4945372;28;20044;-86
2022/10/16 03:09:33;;;;;;;5.90;1.10;;;12.80;99.90;;;;;;4944641;29;20060;-86
2022/10/16 03:11:59;;;;;;;4.40;0.85;;;12.80;99.90;;;;;;4951811;28;20043;-86
2022/10/16 03:14:25;;;;;;;2.90;0.82;;;13.00;99.90;;;;;;4936208;29;20034;-86
2022/10/16 03:16:50;;;;;;;5.95;0.80;;;13.20;99.90;;;;;;4933111;29;20051;-86
2022/10/16 03:19:17;;;;;;;1.95;1.17;;;13.00;99.90;;;;;;4956738;28;20485;-86
2022/10/16 03:21:43;;;;;;;2.83;1.10;;;12.90;99.90;;;;;;4949411;28;20538;-86
2022/10/16 03:24:08;;;;;;;2.72;1.23;;;12.90;99.90;;;;;;4916852;29;20079;-86
2022/10/16 03:26:34;;;;;;;3.42;1.05;;;13.60;99.90;;;;;;4954532;28;20039;-86
2022/10/16 03:29:00;;;;;;;8.52;1.15;;;12.90;99.90;;;;;;4932193;29;20099;-86
2022/10/16 03:31:26;;;;;;;7.88;1.00;;;12.80;99.90;;;;;;4901130;29;20044;-86
2022/10/16 03:33:51;;;;;;;4.85;1.73;;;12.80;99.90;;;;;;4921205;29;20042;-85
2022/10/16 03:36:17;;;;;;;6.28;0.90;;;12.80;99.90;;;;;;4919943;29;20119;-86
2022/10/16 03:38:42;;;;;;;2.50;0.75;;;12.90;99.90;;;;;;4926681;29;20067;-86
2022/10/16 03:41:08;;;;;;;4.90;0.90;;;13.00;99.90;;;;;;4941781;29;20142;-87
2022/10/16 03:43:33;;;;;;;7.75;1.00;;;12.80;99.90;;;;;;4933296;29;20036;-86
2022/10/16 03:45:59;;;;;;;6.03;1.00;;;12.90;99.90;;;;;;4967858;28;20090;-86
2022/10/16 03:48:25;;;;;;;3.65;0.60;;;12.80;99.90;;;;;;4904485;29;20046;-87
2022/10/16 03:50:51;;;;;;;6.60;1.08;;;12.80;99.90;;;;;;4927179;29;20142;-86
2022/10/16 03:53:17;;;;;;;11.98;1.35;;;12.80;99.90;;;;;;4946995;29;20047;-86
2022/10/16 03:55:43;;;;;;;3.50;0.80;;;12.90;99.90;;;;;;4951662;28;20040;-86
2022/10/16 03:58:09;;;;;;;4.65;1.25;;;12.80;99.90;;;;;;4945750;29;20043;-86
2022/10/16 04:00:34;;;;;;;5.28;1.20;;;12.80;99.90;;;;;;4919526;29;20110;-86
2022/10/16 04:03:00;;;;;;;5.70;1.73;;;12.80;99.90;;;;;;4953355;28;20038;-86
2022/10/16 04:05:26;;;;;;;3.90;0.93;;;13.10;99.90;;;;;;4931062;29;20062;-86
2022/10/16 04:07:52;;;;;;;3.17;0.77;;;12.70;99.90;;;;;;4919693;29;20051;-86
2022/10/16 04:10:18;;;;;;;2.83;1.10;;;12.60;99.90;;;;;;4936544;29;20049;-86
2022/10/16 04:12:44;;;;;;;5.15;1.58;;;12.60;99.90;;;;;;4919148;29;20051;-86
2022/10/16 04:15:10;;;;;;;2.67;0.98;;;12.60;99.90;;;;;;4934276;29;20052;-86
2022/10/16 04:17:35;;;;;;;4.25;1.33;;;12.90;99.90;;;;;;4924650;29;20052;-87
2022/10/16 04:20:01;;;;;;;3.80;0.98;;;12.70;99.90;;;;;;4919119;29;20509;-86
2022/10/16 04:22:26;;;;;;;2.22;0.80;;;12.70;99.90;;;;;;4948323;28;20121;-86
2022/10/16 04:24:52;;;;;;;4.55;1.17;;;12.60;99.90;;;;;;4914399;29;20042;-87
2022/10/16 04:27:17;;;;;;;4.68;1.20;;;12.60;99.90;;;;;;4950444;29;20045;-87
2022/10/16 04:29:43;;;;;;;3.00;1.00;;;13.20;99.90;;;;;;4953490;28;20082;-86
2022/10/16 04:32:09;;;;;;;6.45;1.13;;;12.60;99.90;;;;;;4942665;29;20066;-86
2022/10/16 04:34:34;;;;;;;3.15;1.52;;;12.90;99.90;;;;;;4950913;28;20083;-86
2022/10/16 04:37:00;;;;;;;2.53;0.90;;;12.50;99.90;;;;;;4933320;29;20069;-87
2022/10/16 04:39:26;;;;;;;4.35;1.27;;;13.20;99.90;;;;;;4915754;29;20079;-87
2022/10/16 04:41:51;;;;;;;6.07;1.25;;;12.60;99.90;;;;;;4951867;29;20071;-86
2022/10/16 04:44:17;;;;;;;4.72;1.95;;;12.50;99.90;;;;;;4934205;29;20500;-86
2022/10/16 04:46:44;;;;;;;4.07;1.30;;;12.50;99.90;;;;;;4934124;29;20379;-86
2022/10/16 04:49:09;;;;;;;3.20;1.50;;;12.50;99.90;;;;;;4934625;29;20051;-86
2022/10/16 04:51:35;;;;;;;5.53;1.63;;;12.70;99.90;;;;;;4898833;29;20687;-86
2022/10/16 04:54:01;;;;;;;3.17;1.30;;;12.50;99.90;;;;;;4918495;29;20488;-86
2022/10/16 04:56:27;;;;;;;5.28;1.60;;;12.60;99.90;;;;;;4934311;29;20040;-86
2022/10/16 04:58:52;;;;;;;7.25;1.40;;;12.90;99.90;;;;;;4933705;29;20035;-86
2022/10/16 05:01:18;;;;;;;5.32;1.60;;;12.80;99.90;;;;;;4926126;29;20188;-86
2022/10/16 05:03:44;;;;;;;6.57;2.20;;;12.60;99.90;;;;;;4946225;28;21365;-86
2022/10/16 05:06:09;;;;;;;3.70;1.13;;;13.00;99.90;;;;;;4918243;29;20039;-86
2022/10/16 05:08:35;;;;;;;4.55;1.75;;;12.60;99.90;;;;;;4932500;29;20052;-86
2022/10/16 05:11:01;;;;;;;4.65;1.58;;;12.60;99.90;;;;;;4916536;29;20140;-85
2022/10/16 05:13:27;;;;;;;3.53;1.52;;;12.60;99.90;;;;;;4914054;29;20044;-85
2022/10/16 05:15:52;;;;;;;3.88;1.60;;;12.60;99.90;;;;;;4944998;28;20538;-85
2022/10/16 05:18:18;;;;;;;3.85;1.20;;;12.50;99.90;;;;;;4946362;28;20031;-85
2022/10/16 05:20:43;;;;;;;4.15;1.90;;;12.70;99.90;;;;;;4929412;29;20051;-86
2022/10/16 05:23:12;;;;;;;5.30;1.45;;;12.80;99.90;;;;;;4897875;29;21119;-85
2022/10/16 05:25:38;;;;;;;5.35;1.38;;;13.40;99.90;;;;;;4913099;29;20095;-85
2022/10/16 05:28:04;;;;;;;6.82;1.40;;;12.60;99.90;;;;;;4929142;29;20130;-85
2022/10/16 05:30:29;;;;;;;4.13;1.60;;;12.60;99.90;;;;;;4929672;29;20462;-85
2022/10/16 05:32:55;;;;;;;5.13;1.50;;;13.20;99.90;;;;;;4910156;29;20043;-85
2022/10/16 05:35:21;;;;;;;3.55;1.83;;;12.70;99.90;;;;;;4931571;29;20048;-85
2022/10/16 05:37:47;;;;;;;4.25;1.52;;;12.70;99.90;;;;;;4928680;29;20047;-85
2022/10/16 05:40:13;;;;;;;4.15;1.65;;;12.70;99.90;;;;;;4924514;29;20044;-86
2022/10/16 05:42:39;;;;;;;4.63;1.45;;;12.70;99.90;;;;;;4944780;28;20055;-85
2022/10/16 05:45:12;;;;;;;2.90;1.15;;;12.80;99.90;;;;;;4932056;29;20033;-89
2022/10/16 05:47:38;;;;;;;3.13;1.60;;;13.00;99.90;;;;;;4920535;29;20051;-87
2022/10/16 06:35:00;;;;;;;4.05;1.58;;;12.80;99.90;;;;;;4925602;29;20039;-87
2022/10/16 06:37:39;;;;;;;5.63;1.48;;;12.80;99.90;;;;;;4878227;29;20056;-88
2022/10/16 06:40:07;;;;;;;5.35;1.83;;;12.80;99.90;;;;;;4941489;28;20036;-88
2022/10/16 06:42:32;;;;;;;3.70;1.33;;;12.80;99.90;;;;;;4929261;29;20044;-86
2022/10/16 06:44:58;;;;;;;2.55;1.38;;;12.80;99.90;;;;;;4925494;29;20039;-86
2022/10/16 06:47:23;;;;;;;6.40;1.30;;;12.70;99.90;;;;;;4926505;29;20055;-86
2022/10/16 06:49:49;;;;;;;5.03;1.50;;;12.80;99.90;;;;;;4904396;29;20047;-87
2022/10/16 06:52:16;;;;;;;5.22;1.30;;;12.80;99.90;;;;;;4927152;29;20071;-85
2022/10/16 06:54:49;;;;;;;4.80;1.30;;;12.80;99.90;;;;;;4916766;29;20405;-86
2022/10/16 06:57:23;;;;;;;2.92;1.60;;;12.90;99.90;;;;;;4938614;29;20071;-86
2022/10/16 06:59:49;;;;;;;2.30;1.13;;;12.80;99.90;;;;;;4910667;29;20082;-86
2022/10/16 07:02:14;;;;;;;3.47;1.60;;;12.90;99.90;;;;;;4931577;29;20202;-86
2022/10/16 07:04:40;;;;;;;6.72;0.98;;;12.90;99.90;;;;;;4928065;29;20043;-86
2022/10/16 07:07:06;;;;;;;3.35;0.73;;;12.90;99.90;;;;;;4905134;29;20070;-87
2022/10/16 07:09:47;;;;;;;4.22;1.15;;;12.90;99.90;;;;;;4922994;29;20075;-87
2022/10/16 07:15:56;;;;;;;4.90;1.20;;;13.00;99.90;;;;;;4928461;29;20031;-87
2022/10/16 07:18:25;;;;;;;6.55;1.20;;;13.10;99.90;;;;;;4911338;29;20044;-87
2022/10/16 07:21:06;;;;;;;4.53;1.17;;;12.60;99.90;;;;;;4927519;29;20039;-86
2022/10/16 07:23:32;;;;;;;2.70;1.58;;;13.10;99.90;;;;;;4907829;29;20054;-85
2022/10/16 07:26:02;;;;;;;2.85;1.10;;;13.20;99.90;;;;;;4925345;29;20582;-85
2022/10/16 07:28:29;;;;;;;4.85;1.00;;;13.20;99.90;;;;;;4931721;29;20047;-85
2022/10/16 07:31:22;;;;;;;3.20;1.30;;;13.20;99.90;;;;;;4912731;29;20050;-85
2022/10/16 07:33:48;;;;;;;5.55;1.35;;;13.30;99.90;;;;;;4911714;29;20525;-87
2022/10/16 07:36:18;;;;;;;4.07;0.75;;;13.20;99.90;;;;;;4915754;29;20400;-86
2022/10/16 07:38:47;;;;;;;3.08;0.93;;;14.00;99.90;;;;;;4929206;29;20151;-87
2022/10/16 07:41:20;;;;;;;2.53;1.00;;;13.60;99.90;;;;;;4913283;29;20521;-88
2022/10/16 07:43:52;;;;;;;2.42;0.77;;;13.80;99.90;;;;;;4928440;29;20945;-87
2022/10/16 07:46:25;;;;;;;3.92;0.80;;;13.30;99.90;;;;;;4895113;29;20087;-86
2022/10/16 07:49:16;;;;;;;8.68;1.00;;;13.40;99.90;;;;;;4946076;28;20047;-88
2022/10/16 07:55:08;;;;;;;4.72;0.93;;;13.50;99.90;;;;;;4917123;29;20119;-84
2022/10/16 07:57:33;;;;;;;3.17;0.93;;;13.50;99.90;;;;;;4914577;29;20083;-87
2022/10/16 07:59:59;;;;;;;3.00;0.80;;;13.60;99.90;;;;;;4899867;29;20035;-87
2022/10/16 08:06:26;;;;;;;3.33;0.50;;;13.80;99.90;;;;;;4937985;29;20098;-87
2022/10/16 08:13:23;;;;;;;3.22;0.60;;;13.90;99.90;;;;;;4934800;29;20587;-87
2022/10/16 08:24:00;;;;;;;4.05;0.40;;;14.10;99.90;;;;;;4939243;29;20493;-88
2022/10/16 09:03:45;;;;;;;5.47;0.93;;;14.60;99.90;;;;;;4936630;29;20567;-86
2022/10/16 09:06:33;;;;;;;4.63;0.80;;;14.70;99.90;;;;;;4942319;28;20098;-85
2022/10/16 09:09:29;;;;;;;6.03;1.60;;;14.80;99.90;;;;;;4942693;28;20074;-87
2022/10/16 09:12:42;;;;;;;5.60;0.93;;;14.80;99.90;;;;;;4926629;29;20036;-87
2022/10/16 09:15:31;;;;;;;5.68;1.02;;;14.90;99.90;;;;;;4913456;29;20119;-87
2022/10/16 09:18:20;;;;;;;5.53;0.98;;;15.00;99.90;;;;;;4947593;28;20046;-89
2022/10/16 09:21:29;;;;;;;5.05;1.45;;;15.00;99.90;;;;;;4947122;29;20044;-88
2022/10/16 09:23:59;;;;;;;5.47;0.90;;;15.10;99.90;;;;;;4914889;29;20043;-84
2022/10/16 09:26:25;;;;;;;6.47;1.10;;;15.10;99.90;;;;;;4897611;29;20052;-86
2022/10/16 09:28:59;;;;;;;5.97;1.20;;;15.40;99.90;;;;;;4927866;29;20571;-86
2022/10/16 09:31:25;;;;;;;6.20;1.40;;;15.10;99.90;;;;;;4907706;29;20067;-87
2022/10/16 09:33:59;;;;;;;11.88;1.60;;;15.30;99.90;;;;;;4897002;29;20044;-88
2022/10/16 09:36:34;;;;;;;7.57;1.00;;;15.20;99.90;;;;;;4926857;29;20099;-87
2022/10/16 09:39:12;;;;;;;6.22;1.60;;;15.90;99.90;;;;;;4941500;28;20717;-84
2022/10/16 09:42:08;;;;;;;9.45;1.88;;;15.30;99.90;;;;;;4937861;28;20043;-86
2022/10/16 09:44:41;;;;;;;7.68;1.70;;;15.30;99.90;;;;;;4942221;29;20059;-84
2022/10/16 09:47:39;;;;;;;4.05;1.23;;;15.50;99.90;;;;;;4924303;29;20043;-84
2022/10/16 09:50:22;;;;;;;6.57;1.25;;;15.60;99.90;;;;;;4910085;29;20047;-87
2022/10/16 09:52:48;;;;;;;6.70;1.27;;;15.70;99.90;;;;;;4911304;29;20171;-85
2022/10/16 09:55:16;;;;;;;6.57;1.30;;;15.70;99.90;;;;;;4898699;29;20123;-86
2022/10/16 09:57:53;;;;;;;8.02;1.52;;;15.80;99.90;;;;;;4937867;28;20147;-85
2022/10/16 10:00:20;;;;;;;9.38;1.42;;;15.90;99.90;;;;;;4924632;29;20039;-84
2022/10/16 10:02:46;;;;;;;8.60;1.63;;;16.00;99.90;;;;;;4909614;29;20643;-84
2022/10/16 10:05:39;;;;;;;10.15;1.23;;;16.00;99.90;;;;;;4912218;29;20036;-85
2022/10/16 10:08:06;;;;;;;7.32;1.52;;;16.00;99.90;;;;;;4940001;28;20044;-84
2022/10/16 10:10:34;;;;;;;8.90;1.25;;;16.00;99.90;;;;;;4925559;29;20122;-84
2022/10/16 10:13:00;;;;;;;9.80;1.50;;;15.90;99.90;;;;;;4927058;29;20043;-84
2022/10/16 10:15:29;;;;;;;7.82;1.13;;;15.90;99.90;;;;;;4910764;29;20192;-86
2022/10/16 10:17:57;;;;;;;7.70;1.15;;;16.00;99.90;;;;;;4921413;29;20127;-84
2022/10/16 10:20:25;;;;;;;12.65;1.92;;;16.10;99.90;;;;;;4924674;29;20437;-85
2022/10/16 10:22:51;;;;;;;7.95;1.40;;;16.20;99.90;;;;;;4908838;29;20044;-85
2022/10/16 10:25:39;;;;;;;9.88;1.40;;;16.20;99.90;;;;;;4940513;28;20040;-87
2022/10/16 10:28:23;;;;;;;18.52;2.95;;;16.30;99.90;;;;;;4926797;29;20039;-85
2022/10/16 10:30:59;;;;;;;7.93;1.40;;;16.30;99.90;;;;;;4927380;29;20563;-86
2022/10/16 10:33:43;;;;;;;10.10;2.25;;;16.40;99.90;;;;;;4929704;29;20035;-86
2022/10/16 10:36:29;;;;;;;10.40;1.00;;;16.60;99.90;;;;;;4925097;29;20128;-86
2022/10/16 10:39:19;;;;;;;7.70;1.17;;;16.80;99.90;;;;;;4917163;29;20374;-84
2022/10/16 10:42:00;;;;;;;7.70;1.55;;;17.00;99.90;;;;;;4922815;29;20457;-84
2022/10/16 10:44:28;;;;;;;7.20;1.38;;;17.10;99.90;;;;;;4908807;29;20051;-85
2022/10/16 10:47:11;;;;;;;8.07;1.48;;;17.00;99.90;;;;;;4936193;28;20099;-85
2022/10/16 10:50:02;;;;;;;10.55;1.92;;;17.00;99.90;;;;;;4922840;29;20170;-86
2022/10/16 10:52:59;;;;;;;5.93;1.38;;;16.80;99.90;;;;;;4908014;29;20506;-87
2022/10/16 10:55:33;;;;;;;8.63;1.20;;;16.80;99.90;;;;;;4924755;29;20082;-85
2022/10/16 10:58:36;;;;;;;6.88;1.60;;;17.00;99.90;;;;;;4925959;29;20039;-83
2022/10/16 11:01:18;;;;;;;13.98;1.63;;;17.20;99.90;;;;;;4912333;29;20052;-85
2022/10/16 11:04:23;;;;;;;7.85;1.52;;;17.20;99.90;;;;;;4914733;29;21123;-83
2022/10/16 11:07:00;;;;;;;6.85;1.38;;;17.20;99.90;;;;;;4937376;28;20612;-83
2022/10/16 11:09:39;;;;;;;9.55;1.60;;;17.30;99.90;;;;;;4896840;29;20071;-84
2022/10/16 11:12:39;;;;;;;8.90;1.33;;;17.20;99.90;;;;;;4942214;28;20107;-81
2022/10/16 11:15:16;;;;;;;13.07;1.98;;;17.30;99.90;;;;;;4942473;29;20046;-82
2022/10/16 11:17:50;;;;;;;8.35;1.52;;;17.30;99.90;;;;;;4915200;29;20055;-83
2022/10/16 11:20:29;;;;;;;10.07;1.70;;;17.40;99.90;;;;;;4941451;28;20708;-85
2022/10/16 11:23:10;;;;;;;9.68;1.67;;;17.50;99.90;;;;;;4909779;29;20055;-83
2022/10/16 11:25:43;;;;;;;12.35;1.60;;;17.50;99.90;;;;;;4924963;29;20499;-84
2022/10/16 11:28:16;;;;;;;8.32;1.92;;;17.80;99.90;;;;;;4925982;29;20047;-85
2022/10/16 11:30:56;;;;;;;14.00;1.92;;;18.00;99.90;;;;;;4934293;28;20070;-86
2022/10/16 11:33:43;;;;;;;8.07;1.50;;;18.30;99.90;;;;;;4938474;29;20432;-86
2022/10/16 11:36:37;;;;;;;10.10;1.77;;;18.30;99.90;;;;;;4905773;29;20048;-86
2022/10/16 11:39:20;;;;;;;6.72;1.67;;;18.30;99.90;;;;;;4939985;28;20911;-87
2022/10/16 11:42:18;;;;;;;9.45;1.90;;;18.10;99.90;;;;;;4906528;29;20134;-85
2022/10/16 11:45:28;;;;;;;8.00;1.52;;;18.10;99.90;;;;;;4936429;29;20389;-86
2022/10/16 11:48:07;;;;;;;5.85;1.10;;;17.80;99.90;;;;;;4871767;29;20132;-84
2022/10/16 11:51:07;;;;;;;12.40;2.13;;;17.80;99.90;;;;;;4922532;29;20066;-85
2022/10/16 11:54:01;;;;;;;14.32;1.67;;;17.90;99.90;;;;;;4898955;29;20051;-85
2022/10/16 11:56:30;;;;;;;9.75;1.42;;;18.10;99.90;;;;;;4916157;29;20453;-84
2022/10/16 11:59:08;;;;;;;9.50;1.80;;;18.40;99.90;;;;;;4930715;28;20039;-85
2022/10/16 12:01:34;;;;;;;12.15;2.08;;;18.40;99.90;;;;;;4936379;28;20429;-85
2022/10/16 12:04:12;;;;;;;14.07;1.88;;;18.40;99.90;;;;;;4924766;29;20187;-85
2022/10/16 12:06:43;;;;;;;17.30;2.10;;;18.50;99.90;;;;;;4910478;29;20043;-87
2022/10/16 12:09:34;;;;;;;11.93;2.10;;;18.70;99.90;;;;;;4925580;29;20066;-87
2022/10/16 12:12:27;;;;;;;6.82;1.65;;;18.80;99.90;;;;;;4917293;29;20514;-86
2022/10/16 12:15:04;;;;;;;9.35;1.70;;;18.80;99.90;;;;;;4907918;29;20389;-86
2022/10/16 12:17:37;;;;;;;9.13;1.80;;;18.80;99.90;;;;;;4909286;29;20044;-85
2022/10/16 12:20:12;;;;;;;7.18;1.63;;;18.90;99.90;;;;;;4940294;28;20047;-86
2022/10/16 12:22:48;;;;;;;10.05;1.60;;;19.00;99.90;;;;;;4925273;29;20050;-84
2022/10/16 12:25:30;;;;;;;7.93;1.90;;;19.00;99.90;;;;;;4926086;29;20051;-86
2022/10/16 12:27:58;;;;;;;9.57;1.95;;;18.80;99.90;;;;;;4926939;29;20039;-86
2022/10/16 12:30:30;;;;;;;8.50;1.67;;;18.80;99.90;;;;;;4943792;28;20031;-87
2022/10/16 12:33:09;;;;;;;7.60;1.27;;;18.70;99.90;;;;;;4900149;29;20035;-87
2022/10/16 12:35:44;;;;;;;13.77;2.38;;;18.60;99.90;;;;;;4909680;29;20055;-86
2022/10/16 12:38:24;;;;;;;11.52;1.45;;;18.60;99.90;;;;;;4926409;29;20047;-86
2022/10/16 12:41:06;;;;;;;7.35;1.50;;;18.50;99.90;;;;;;4945742;28;20389;-87
2022/10/16 12:44:04;;;;;;;10.02;1.50;;;18.50;99.90;;;;;;4899321;29;20082;-87
2022/10/16 12:46:30;;;;;;;8.75;1.60;;;18.50;99.90;;;;;;4911751;29;20051;-88
2022/10/16 12:49:15;;;;;;;10.73;1.55;;;18.60;99.90;;;;;;4911442;29;20100;-87
2022/10/16 12:52:33;;;;;;;9.87;1.67;;;18.50;99.90;;;;;;4913289;29;20079;-89
2022/10/16 12:55:18;;;;;;;10.35;1.83;;;18.50;99.90;;;;;;4929409;29;20048;-86
2022/10/16 12:58:36;;;;;;;7.72;1.33;;;18.60;99.90;;;;;;4908784;29;20036;-86
2022/10/16 13:06:00;;;;;;;7.13;1.15;;;18.70;99.90;;;;;;4907323;29;20048;-89
2022/10/16 13:09:37;;;;;;;6.90;1.45;;;18.70;99.90;;;;;;4852630;29;20054;-89
2022/10/16 13:12:48;;;;;;;8.48;1.85;;;18.80;99.90;;;;;;4816229;29;20058;-84
2022/10/16 13:15:37;;;;;;;11.57;2.42;;;18.70;99.90;;;;;;4910816;29;20143;-86
2022/10/16 13:22:05;;;;;;;8.25;1.67;;;18.70;99.90;;;;;;4884318;29;20046;-86
2022/10/16 13:25:14;;;;;;;8.15;1.35;;;18.60;99.90;;;;;;4909525;29;20415;-86
2022/10/16 13:27:59;;;;;;;10.60;1.60;;;18.50;99.90;;;;;;4928917;29;20056;-86
2022/10/16 13:30:57;;;;;;;10.00;1.95;;;18.50;99.90;;;;;;4926041;29;20504;-88
2022/10/16 13:33:39;;;;;;;9.57;1.70;;;18.30;99.90;;;;;;4927562;29;20119;-90
2022/10/16 13:36:06;;;;;;;23.20;2.55;;;18.20;99.90;;;;;;4913015;29;20051;-89
2022/10/16 13:38:34;;;;;;;10.95;2.90;;;17.90;99.90;;;;;;4944530;28;20119;-89
2022/10/16 13:41:02;;;;;;;12.27;1.85;;;17.90;99.90;;;;;;4932593;29;20035;-90
2022/10/16 13:43:41;;;;;;;13.60;2.55;;;17.80;99.90;;;;;;4909232;29;20100;-85
2022/10/16 13:46:22;;;;;;;10.98;2.45;;;17.60;99.90;;;;;;4908236;29;20810;-88
2022/10/16 13:49:04;;;;;;;14.85;2.63;;;17.60;99.90;;;;;;4922797;29;20104;-87
2022/10/16 13:51:31;;;;;;;9.95;2.03;;;17.60;99.90;;;;;;4907963;29;20082;-88
2022/10/16 13:53:57;;;;;;;18.17;1.85;;;17.50;99.90;;;;;;4907251;29;20089;-87
2022/10/16 13:56:27;;;;;;;8.75;1.50;;;17.90;99.90;;;;;;4939411;29;20420;-87
2022/10/16 13:59:01;;;;;;;10.15;1.65;;;17.40;99.90;;;;;;4942252;28;20134;-86
2022/10/16 14:01:33;;;;;;;8.98;1.48;;;17.50;99.90;;;;;;4905572;29;20083;-87
2022/10/16 14:04:08;;;;;;;8.13;1.63;;;17.40;99.90;;;;;;4907205;29;20409;-88
2022/10/16 14:06:36;;;;;;;8.80;1.50;;;17.40;99.90;;;;;;4905775;29;20043;-87
2022/10/16 14:09:18;;;;;;;10.77;1.98;;;17.30;99.90;;;;;;4937835;28;20042;-86
2022/10/16 14:11:48;;;;;;;11.63;1.95;;;17.40;99.90;;;;;;4905071;29;20052;-86
2022/10/16 14:14:15;;;;;;;9.60;1.63;;;17.30;99.90;;;;;;4925511;29;20040;-86
2022/10/16 14:16:43;;;;;;;11.45;1.60;;;17.30;99.90;;;;;;4895036;29;20087;-85
2022/10/16 14:19:27;;;;;;;9.02;1.60;;;17.30;99.90;;;;;;4924930;29;20042;-85
2022/10/16 14:21:53;;;;;;;9.90;2.00;;;17.20;99.90;;;;;;4944810;29;20058;-86
2022/10/16 14:24:35;;;;;;;9.82;1.38;;;17.10;99.90;;;;;;4929685;29;20380;-87
2022/10/16 14:27:01;;;;;;;10.30;2.33;;;17.10;99.90;;;;;;4923364;29;20051;-87
2022/10/16 14:29:35;;;;;;;12.48;1.98;;;17.00;99.90;;;;;;4941173;28;20078;-87
2022/10/16 14:32:05;;;;;;;11.07;1.33;;;16.90;99.90;;;;;;4907160;29;20051;-87
2022/10/16 14:34:39;;;;;;;11.32;1.85;;;16.90;99.90;;;;;;4894501;29;20044;-87
2022/10/16 14:37:29;;;;;;;9.52;1.80;;;16.80;99.90;;;;;;4913447;29;20087;-86
2022/10/16 14:39:56;;;;;;;14.52;1.75;;;16.80;99.90;;;;;;4882142;29;20042;-85
2022/10/16 14:42:24;;;;;;;12.85;2.78;;;16.70;99.90;;;;;;4940476;28;20512;-86
2022/10/16 14:44:52;;;;;;;14.07;1.88;;;16.70;99.90;;;;;;4896170;29;20050;-85
2022/10/16 14:47:26;;;;;;;9.05;1.35;;;16.70;99.90;;;;;;4922123;29;20050;-87
2022/10/16 14:49:54;;;;;;;7.82;1.67;;;16.70;99.90;;;;;;4906527;29;20127;-87
2022/10/16 14:52:20;;;;;;;10.50;2.28;;;16.60;99.90;;;;;;4928094;29;20043;-89
2022/10/16 14:54:56;;;;;;;11.18;1.70;;;16.60;99.90;;;;;;4910443;29;20404;-89
2022/10/16 14:57:43;;;;;;;11.07;1.85;;;16.50;99.90;;;;;;4893317;29;20055;-87
2022/10/16 15:00:23;;;;;;;10.73;1.98;;;16.50;99.90;;;;;;4934064;28;20044;-85
2022/10/16 15:02:50;;;;;;;10.20;1.70;;;16.50;99.90;;;;;;4905276;29;20036;-88
2022/10/16 15:05:18;;;;;;;8.82;1.60;;;16.40;99.90;;;;;;4939575;28;20400;-84
2022/10/16 15:07:45;;;;;;;6.97;0.88;;;16.40;99.90;;;;;;4906424;29;20043;-85
2022/10/16 15:10:13;;;;;;;7.47;2.10;;;16.30;99.90;;;;;;4905132;29;20056;-85
2022/10/16 15:12:38;;;;;;;13.23;2.38;;;16.20;99.90;;;;;;4908766;29;20044;-85
2022/10/16 15:15:22;;;;;;;18.08;1.73;;;16.20;99.90;;;;;;4929279;29;20079;-87